SWA1403 KCMH-KDCA
Flight info
| Callsign | SWA1403 |
|---|---|
| Flight time | 0h 44m |
| Altitude | 31000 |
| Route | OWEBO AIR BUCKO FRDMM6 |
| Aircraft | B738/M-VGDW/C |
Departure
| Time | 2026-04-25 03:29 |
|---|---|
| Airport | John Glenn Columbus International Airport (KCMH) |
Arrival
| Time | 2026-04-25 04:13 |
|---|---|
| Airport | Ronald Reagan Washington National Airport (KDCA) |
| Time | Latitude | Longitude | Altitude | Speed | Heading |
|---|---|---|---|---|---|
| 2026-04-25 03:23 | 39.99644 | -82.88437 | 824 ft | 0 kts | 35° |
| 2026-04-25 03:24 | 39.99635 | -82.88445 | 824 ft | 2 kts | 35° |
| 2026-04-25 03:25 | 39.99622 | -82.88458 | 824 ft | 2 kts | 34° |
| 2026-04-25 03:25 | 39.99608 | -82.88470 | 822 ft | 2 kts | 36° |
| 2026-04-25 03:25 | 39.99595 | -82.88483 | 821 ft | 2 kts | 52° |
| 2026-04-25 03:25 | 39.99591 | -82.88493 | 824 ft | 0 kts | 87° |
| 2026-04-25 03:26 | 39.99591 | -82.88492 | 824 ft | 1 kts | 87° |
| 2026-04-25 03:26 | 39.99597 | -82.88334 | 824 ft | 24 kts | 80° |
| 2026-04-25 03:27 | 39.99601 | -82.88120 | 824 ft | 25 kts | 88° |
| 2026-04-25 03:27 | 39.99660 | -82.87914 | 824 ft | 26 kts | 14° |
| 2026-04-25 03:27 | 39.99829 | -82.87896 | 824 ft | 23 kts | 4° |
| 2026-04-25 03:27 | 39.99948 | -82.87924 | 822 ft | 15 kts | 336° |
| 2026-04-25 03:28 | 40.00062 | -82.87940 | 824 ft | 20 kts | 3° |
| 2026-04-25 03:28 | 40.00161 | -82.88012 | 821 ft | 6 kts | 278° |
| 2026-04-25 03:28 | 40.00166 | -82.88062 | 823 ft | 6 kts | 277° |
| 2026-04-25 03:28 | 40.00181 | -82.88307 | 825 ft | 70 kts | 274° |
| 2026-04-25 03:29 | 40.00241 | -82.89336 | 823 ft | 155 kts | 275° |
| 2026-04-25 03:29 | 40.00344 | -82.90922 | 1392 ft | 189 kts | 276° |
| 2026-04-25 03:29 | 40.00636 | -82.92674 | 2237 ft | 208 kts | 295° |
| 2026-04-25 03:29 | 40.01680 | -82.94120 | 2562 ft | 244 kts | 330° |
| 2026-04-25 03:30 | 40.03409 | -82.94500 | 3065 ft | 267 kts | 7° |
| 2026-04-25 03:30 | 40.05150 | -82.93552 | 3901 ft | 277 kts | 30° |
| 2026-04-25 03:30 | 40.06793 | -82.92171 | 4812 ft | 285 kts | 32° |
| 2026-04-25 03:30 | 40.08427 | -82.90650 | 5636 ft | 293 kts | 44° |
| 2026-04-25 03:31 | 40.09463 | -82.88375 | 6518 ft | 295 kts | 78° |
| 2026-04-25 03:31 | 40.09564 | -82.85735 | 7452 ft | 292 kts | 95° |
| 2026-04-25 03:31 | 40.09470 | -82.83058 | 8288 ft | 298 kts | 96° |
| 2026-04-25 03:31 | 40.09372 | -82.80334 | 9137 ft | 303 kts | 96° |
| 2026-04-25 03:32 | 40.09288 | -82.77567 | 10026 ft | 306 kts | 95° |
| 2026-04-25 03:32 | 40.09221 | -82.74783 | 10907 ft | 307 kts | 95° |
| 2026-04-25 03:32 | 40.09167 | -82.72019 | 11703 ft | 313 kts | 95° |
| 2026-04-25 03:32 | 40.09115 | -82.69082 | 11993 ft | 336 kts | 94° |
| 2026-04-25 03:33 | 40.09065 | -82.65921 | 12181 ft | 361 kts | 94° |
| 2026-04-25 03:33 | 40.09019 | -82.62541 | 12362 ft | 383 kts | 93° |
| 2026-04-25 03:33 | 40.08975 | -82.58968 | 12531 ft | 403 kts | 93° |
| 2026-04-25 03:33 | 40.08932 | -82.55237 | 12785 ft | 418 kts | 93° |
| 2026-04-25 03:34 | 40.08891 | -82.51413 | 13308 ft | 423 kts | 93° |
| 2026-04-25 03:34 | 40.08849 | -82.47585 | 13919 ft | 425 kts | 93° |
| 2026-04-25 03:34 | 40.08807 | -82.43713 | 14450 ft | 428 kts | 92° |
| 2026-04-25 03:34 | 40.08761 | -82.39854 | 14899 ft | 433 kts | 92° |
| 2026-04-25 03:35 | 40.08711 | -82.35897 | 15361 ft | 438 kts | 92° |
| 2026-04-25 03:35 | 40.08629 | -82.32361 | 15779 ft | 441 kts | 96° |
| 2026-04-25 03:35 | 40.08085 | -82.28417 | 16245 ft | 442 kts | 108° |
| 2026-04-25 03:35 | 40.07029 | -82.24649 | 16756 ft | 443 kts | 114° |
| 2026-04-25 03:36 | 40.05871 | -82.20906 | 17205 ft | 447 kts | 114° |
| 2026-04-25 03:36 | 40.04708 | -82.17123 | 17624 ft | 451 kts | 113° |
| 2026-04-25 03:36 | 40.03535 | -82.13307 | 18068 ft | 455 kts | 113° |
| 2026-04-25 03:36 | 40.02369 | -82.09517 | 18456 ft | 457 kts | 113° |
| 2026-04-25 03:37 | 40.01179 | -82.05658 | 18843 ft | 460 kts | 113° |
| 2026-04-25 03:37 | 39.99979 | -82.01772 | 19222 ft | 463 kts | 113° |
| 2026-04-25 03:37 | 39.98772 | -81.97869 | 19586 ft | 466 kts | 113° |
| 2026-04-25 03:37 | 39.97554 | -81.93938 | 19939 ft | 469 kts | 113° |
| 2026-04-25 03:38 | 39.96328 | -81.89987 | 20272 ft | 472 kts | 113° |
| 2026-04-25 03:38 | 39.95090 | -81.86005 | 20601 ft | 475 kts | 113° |
| 2026-04-25 03:38 | 39.93844 | -81.82003 | 20920 ft | 478 kts | 113° |
| 2026-04-25 03:38 | 39.92605 | -81.78029 | 21236 ft | 481 kts | 113° |
| 2026-04-25 03:39 | 39.91341 | -81.73980 | 21540 ft | 484 kts | 113° |
| 2026-04-25 03:39 | 39.90068 | -81.69909 | 21830 ft | 487 kts | 113° |
| 2026-04-25 03:39 | 39.88785 | -81.65813 | 22128 ft | 490 kts | 113° |
| 2026-04-25 03:39 | 39.87494 | -81.61695 | 22420 ft | 493 kts | 113° |
| 2026-04-25 03:40 | 39.86350 | -81.58052 | 22643 ft | 495 kts | 113° |
| 2026-04-25 03:40 | 39.85045 | -81.53904 | 22915 ft | 498 kts | 113° |
| 2026-04-25 03:40 | 39.83727 | -81.49722 | 23186 ft | 500 kts | 113° |
| 2026-04-25 03:40 | 39.82425 | -81.45593 | 23438 ft | 502 kts | 112° |
| 2026-04-25 03:41 | 39.81093 | -81.41376 | 23654 ft | 504 kts | 112° |
| 2026-04-25 03:41 | 39.79757 | -81.37156 | 23891 ft | 505 kts | 112° |
| 2026-04-25 03:41 | 39.78417 | -81.32926 | 24118 ft | 507 kts | 112° |
| 2026-04-25 03:41 | 39.77072 | -81.28690 | 24341 ft | 508 kts | 112° |
| 2026-04-25 03:42 | 39.75719 | -81.24434 | 24551 ft | 510 kts | 112° |
| 2026-04-25 03:42 | 39.74364 | -81.20177 | 24762 ft | 511 kts | 112° |
| 2026-04-25 03:42 | 39.73004 | -81.15912 | 24959 ft | 512 kts | 112° |
| 2026-04-25 03:42 | 39.71777 | -81.12068 | 25121 ft | 513 kts | 112° |
| 2026-04-25 03:43 | 39.70424 | -81.07841 | 25276 ft | 514 kts | 112° |
| 2026-04-25 03:43 | 39.69049 | -81.03545 | 25419 ft | 516 kts | 112° |
| 2026-04-25 03:43 | 39.67830 | -80.99746 | 25526 ft | 517 kts | 112° |
| 2026-04-25 03:43 | 39.66445 | -80.95435 | 25641 ft | 518 kts | 112° |
| 2026-04-25 03:44 | 39.65057 | -80.91121 | 25747 ft | 519 kts | 112° |
| 2026-04-25 03:44 | 39.63662 | -80.86792 | 25839 ft | 520 kts | 112° |
| 2026-04-25 03:44 | 39.62265 | -80.82464 | 25925 ft | 521 kts | 112° |
| 2026-04-25 03:44 | 39.60883 | -80.78188 | 25992 ft | 521 kts | 112° |
| 2026-04-25 03:45 | 39.59480 | -80.73854 | 26088 ft | 522 kts | 112° |
| 2026-04-25 03:45 | 39.58075 | -80.69523 | 26229 ft | 521 kts | 112° |
| 2026-04-25 03:45 | 39.56670 | -80.65196 | 26395 ft | 520 kts | 112° |
| 2026-04-25 03:45 | 39.55265 | -80.60876 | 26560 ft | 521 kts | 112° |
| 2026-04-25 03:46 | 39.53857 | -80.56554 | 26800 ft | 521 kts | 112° |
| 2026-04-25 03:46 | 39.52442 | -80.52216 | 26820 ft | 525 kts | 112° |
| 2026-04-25 03:46 | 39.51014 | -80.47845 | 26839 ft | 528 kts | 112° |
| 2026-04-25 03:46 | 39.49596 | -80.43511 | 26841 ft | 531 kts | 112° |
| 2026-04-25 03:47 | 39.48154 | -80.39111 | 26849 ft | 532 kts | 112° |
| 2026-04-25 03:47 | 39.45536 | -80.31142 | 26860 ft | 534 kts | 112° |
| 2026-04-25 03:47 | 39.42620 | -80.22293 | 26872 ft | 535 kts | 112° |
| 2026-04-25 03:47 | 39.39697 | -80.13447 | 26874 ft | 535 kts | 112° |
| 2026-04-25 03:48 | 39.37990 | -80.08296 | 26864 ft | 536 kts | 112° |
| 2026-04-25 03:48 | 39.36535 | -80.03909 | 26861 ft | 536 kts | 112° |
| 2026-04-25 03:48 | 39.35066 | -79.99489 | 26857 ft | 536 kts | 112° |
| 2026-04-25 03:48 | 39.33613 | -79.95122 | 26865 ft | 536 kts | 112° |
| 2026-04-25 03:49 | 39.32140 | -79.90702 | 26866 ft | 536 kts | 112° |
| 2026-04-25 03:49 | 39.30673 | -79.86282 | 26868 ft | 536 kts | 111° |
| 2026-04-25 03:49 | 39.29481 | -79.81735 | 26870 ft | 534 kts | 103° |
| 2026-04-25 03:49 | 39.28650 | -79.75095 | 26871 ft | 531 kts | 93° |
| 2026-04-25 03:50 | 39.28047 | -79.65612 | 26877 ft | 526 kts | 93° |
| 2026-04-25 03:50 | 39.27677 | -79.60721 | 26872 ft | 518 kts | 94° |
| 2026-04-25 03:50 | 39.27301 | -79.56109 | 26868 ft | 515 kts | 94° |
| 2026-04-25 03:50 | 39.26925 | -79.51567 | 26482 ft | 519 kts | 94° |
| 2026-04-25 03:51 | 39.26545 | -79.46932 | 26117 ft | 518 kts | 94° |
| 2026-04-25 03:51 | 39.26212 | -79.42854 | 25776 ft | 517 kts | 94° |
| 2026-04-25 03:51 | 39.25837 | -79.38253 | 25402 ft | 515 kts | 94° |
| 2026-04-25 03:51 | 39.25462 | -79.33676 | 25027 ft | 512 kts | 94° |
| 2026-04-25 03:52 | 39.25088 | -79.29138 | 24648 ft | 500 kts | 94° |
| 2026-04-25 03:52 | 39.24724 | -79.24777 | 24316 ft | 477 kts | 94° |
| 2026-04-25 03:52 | 39.24410 | -79.21036 | 24046 ft | 460 kts | 94° |
| 2026-04-25 03:52 | 39.24068 | -79.17006 | 23714 ft | 444 kts | 94° |
| 2026-04-25 03:53 | 39.23735 | -79.13131 | 23416 ft | 441 kts | 94° |
| 2026-04-25 03:53 | 39.23399 | -79.09191 | 23044 ft | 442 kts | 94° |
| 2026-04-25 03:53 | 39.23065 | -79.05250 | 22695 ft | 441 kts | 94° |
| 2026-04-25 03:53 | 39.22731 | -79.01337 | 22357 ft | 437 kts | 94° |
| 2026-04-25 03:54 | 39.22397 | -78.97464 | 22026 ft | 433 kts | 94° |
| 2026-04-25 03:54 | 39.22053 | -78.93619 | 21701 ft | 430 kts | 95° |
| 2026-04-25 03:54 | 39.21687 | -78.89808 | 21383 ft | 427 kts | 95° |
| 2026-04-25 03:54 | 39.21314 | -78.86024 | 21060 ft | 424 kts | 95° |
| 2026-04-25 03:55 | 39.20949 | -78.82316 | 20757 ft | 422 kts | 95° |
| 2026-04-25 03:55 | 39.20583 | -78.78571 | 20440 ft | 420 kts | 95° |
| 2026-04-25 03:55 | 39.20220 | -78.74842 | 20123 ft | 418 kts | 95° |
| 2026-04-25 03:55 | 39.19858 | -78.71134 | 19799 ft | 416 kts | 95° |
| 2026-04-25 03:56 | 39.19495 | -78.67437 | 19449 ft | 415 kts | 96° |
| 2026-04-25 03:56 | 39.19132 | -78.63758 | 19101 ft | 413 kts | 96° |
| 2026-04-25 03:56 | 39.18770 | -78.60100 | 18760 ft | 410 kts | 96° |
| 2026-04-25 03:56 | 39.18411 | -78.56483 | 18417 ft | 404 kts | 96° |
| 2026-04-25 03:57 | 39.18061 | -78.52965 | 18077 ft | 398 kts | 96° |
| 2026-04-25 03:57 | 39.17710 | -78.49433 | 17700 ft | 398 kts | 96° |
| 2026-04-25 03:57 | 39.17356 | -78.45892 | 17343 ft | 398 kts | 96° |
| 2026-04-25 03:57 | 39.17003 | -78.42361 | 17010 ft | 397 kts | 96° |
| 2026-04-25 03:58 | 39.16648 | -78.38834 | 16664 ft | 396 kts | 96° |
| 2026-04-25 03:58 | 39.16222 | -78.35331 | 16328 ft | 396 kts | 102° |
| 2026-04-25 03:58 | 39.15470 | -78.31924 | 16010 ft | 395 kts | 107° |
| 2026-04-25 03:58 | 39.14579 | -78.28575 | 15688 ft | 395 kts | 108° |
| 2026-04-25 03:59 | 39.13685 | -78.25288 | 15365 ft | 394 kts | 108° |
| 2026-04-25 03:59 | 39.12805 | -78.21958 | 15033 ft | 392 kts | 108° |
| 2026-04-25 03:59 | 39.11955 | -78.18625 | 14703 ft | 391 kts | 107° |
| 2026-04-25 03:59 | 39.11124 | -78.15303 | 14377 ft | 389 kts | 107° |
| 2026-04-25 04:00 | 39.10302 | -78.11997 | 14051 ft | 387 kts | 107° |
| 2026-04-25 04:00 | 39.09527 | -78.08912 | 13730 ft | 377 kts | 107° |
| 2026-04-25 04:00 | 39.08721 | -78.05756 | 13368 ft | 364 kts | 108° |
| 2026-04-25 04:00 | 39.07941 | -78.02710 | 13052 ft | 353 kts | 108° |
| 2026-04-25 04:01 | 39.07193 | -77.99791 | 12755 ft | 345 kts | 108° |
| 2026-04-25 04:01 | 39.06446 | -77.96875 | 12473 ft | 343 kts | 108° |
| 2026-04-25 04:01 | 39.05694 | -77.93935 | 12196 ft | 349 kts | 108° |
| 2026-04-25 04:01 | 39.04931 | -77.90961 | 11897 ft | 349 kts | 108° |
| 2026-04-25 04:02 | 39.04172 | -77.88008 | 11466 ft | 344 kts | 108° |
| 2026-04-25 04:02 | 39.03437 | -77.85148 | 11205 ft | 331 kts | 108° |
| 2026-04-25 04:02 | 39.02729 | -77.82391 | 10927 ft | 319 kts | 108° |
| 2026-04-25 04:02 | 39.02051 | -77.79754 | 10677 ft | 310 kts | 108° |
| 2026-04-25 04:03 | 39.01384 | -77.77163 | 10435 ft | 303 kts | 108° |
| 2026-04-25 04:03 | 39.00721 | -77.74606 | 10207 ft | 300 kts | 108° |
| 2026-04-25 04:03 | 39.00059 | -77.72050 | 9972 ft | 303 kts | 109° |
| 2026-04-25 04:03 | 38.99388 | -77.69463 | 9732 ft | 307 kts | 109° |
| 2026-04-25 04:04 | 38.98714 | -77.66864 | 9467 ft | 306 kts | 109° |
| 2026-04-25 04:04 | 38.98032 | -77.64289 | 9191 ft | 303 kts | 110° |
| 2026-04-25 04:04 | 38.97289 | -77.61761 | 8972 ft | 302 kts | 111° |
| 2026-04-25 04:04 | 38.96534 | -77.59246 | 8708 ft | 301 kts | 111° |
| 2026-04-25 04:05 | 38.95801 | -77.56792 | 8447 ft | 295 kts | 111° |
| 2026-04-25 04:05 | 38.95080 | -77.54365 | 8208 ft | 287 kts | 111° |
| 2026-04-25 04:05 | 38.94633 | -77.51934 | 7944 ft | 283 kts | 89° |
| 2026-04-25 04:05 | 38.94983 | -77.49463 | 7665 ft | 282 kts | 68° |
| 2026-04-25 04:06 | 38.95739 | -77.47144 | 7361 ft | 283 kts | 64° |
| 2026-04-25 04:06 | 38.96541 | -77.44836 | 7029 ft | 283 kts | 64° |
| 2026-04-25 04:06 | 38.97340 | -77.42529 | 6708 ft | 283 kts | 64° |
| 2026-04-25 04:06 | 38.98127 | -77.40220 | 6379 ft | 282 kts | 65° |
| 2026-04-25 04:07 | 38.98891 | -77.37947 | 6041 ft | 279 kts | 65° |
| 2026-04-25 04:07 | 38.99652 | -77.35670 | 5695 ft | 275 kts | 65° |
| 2026-04-25 04:07 | 39.00349 | -77.33446 | 5381 ft | 261 kts | 74° |
| 2026-04-25 04:07 | 39.00294 | -77.31197 | 4978 ft | 249 kts | 108° |
| 2026-04-25 04:08 | 38.99777 | -77.29156 | 4747 ft | 233 kts | 107° |
| 2026-04-25 04:08 | 38.99318 | -77.27202 | 4409 ft | 223 kts | 107° |
| 2026-04-25 04:08 | 38.98884 | -77.25346 | 4128 ft | 212 kts | 108° |
| 2026-04-25 04:08 | 38.98464 | -77.23564 | 3869 ft | 203 kts | 108° |
| 2026-04-25 04:09 | 38.98057 | -77.21846 | 3640 ft | 201 kts | 109° |
| 2026-04-25 04:09 | 38.97654 | -77.20154 | 3419 ft | 200 kts | 109° |
| 2026-04-25 04:09 | 38.97246 | -77.18445 | 3176 ft | 200 kts | 110° |
| 2026-04-25 04:09 | 38.96839 | -77.16739 | 2931 ft | 198 kts | 110° |
| 2026-04-25 04:10 | 38.96320 | -77.15134 | 2643 ft | 191 kts | 135° |
| 2026-04-25 04:10 | 38.95359 | -77.14067 | 2499 ft | 175 kts | 143° |
| 2026-04-25 04:10 | 38.94454 | -77.13069 | 2255 ft | 167 kts | 142° |
| 2026-04-25 04:10 | 38.93595 | -77.12108 | 2064 ft | 161 kts | 141° |
| 2026-04-25 04:11 | 38.92102 | -77.10755 | 1731 ft | 154 kts | 150° |
| 2026-04-25 04:11 | 38.90922 | -77.09742 | 1631 ft | 192 kts | 136° |
| 2026-04-25 04:11 | 38.90374 | -77.08308 | 1706 ft | 170 kts | 111° |
| 2026-04-25 04:12 | 38.90031 | -77.06886 | 1122 ft | 163 kts | 123° |
| 2026-04-25 04:12 | 38.89278 | -77.05857 | 729 ft | 155 kts | 141° |
| 2026-04-25 04:12 | 38.88474 | -77.05086 | 529 ft | 131 kts | 145° |
| 2026-04-25 04:12 | 38.87792 | -77.04444 | 319 ft | 114 kts | 144° |
| 2026-04-25 04:13 | 38.86928 | -77.03963 | 223 ft | 167 kts | 172° |
| 2026-04-25 04:13 | 38.85824 | -77.03844 | 28 ft | 148 kts | 172° |
| 2026-04-25 04:13 | 38.85155 | -77.03774 | 23 ft | 46 kts | 174° |
| 2026-04-25 04:13 | 38.84928 | -77.03781 | 22 ft | 24 kts | 202° |
| 2026-04-25 04:14 | 38.84876 | -77.03876 | 25 ft | 1 kts | 259° |
| 2026-04-25 04:14 | 38.84872 | -77.03908 | 23 ft | 11 kts | 258° |
| 2026-04-25 04:14 | 38.84777 | -77.03960 | 25 ft | 19 kts | 199° |
| 2026-04-25 04:14 | 38.84654 | -77.04027 | 25 ft | 19 kts | 205° |
| 2026-04-25 04:15 | 38.84585 | -77.04157 | 23 ft | 18 kts | 255° |
| 2026-04-25 04:15 | 38.84573 | -77.04312 | 23 ft | 18 kts | 296° |
| 2026-04-25 04:15 | 38.84659 | -77.04415 | 25 ft | 17 kts | 343° |
| 2026-04-25 04:15 | 38.84730 | -77.04379 | 23 ft | 11 kts | 48° |
| 2026-04-25 04:16 | 38.84731 | -77.04349 | 23 ft | 3 kts | 128° |
| 2026-04-25 04:16 | 38.84724 | -77.04340 | 23 ft | 3 kts | 135° |
| 2026-04-25 04:16 | 38.84717 | -77.04331 | 25 ft | 0 kts | 134° |